createdAt,value
2023-04-20T05:24:23.811Z,99.99
2023-04-20T05:25:02.171Z,99.99
2023-04-20T05:26:02.149Z,99.99
2023-04-20T05:27:02.127Z,99.99
2023-04-20T05:28:02.120Z,99.99
2023-04-20T05:29:02.111Z,99.99
2023-04-20T05:30:13.186Z,99.99
2023-04-20T05:31:02.114Z,99.99
2023-04-20T05:32:02.168Z,99.99
2023-04-20T05:33:02.112Z,99.99
2023-04-20T05:34:02.088Z,99.99
2023-04-20T05:35:02.032Z,99.99
2023-04-20T05:36:02.023Z,99.99
2023-04-20T05:37:02.046Z,99.99
2023-04-20T05:38:02.020Z,99.99
2023-04-20T05:39:02.006Z,99.99
2023-04-20T05:40:02.000Z,99.99
2023-04-20T05:41:01.991Z,99.99
2023-04-20T05:42:02.002Z,99.99
2023-04-20T05:43:01.956Z,99.99
2023-04-20T05:44:01.947Z,99.99
2023-04-20T05:45:01.952Z,99.99
2023-04-20T05:46:01.960Z,99.99
2023-04-20T05:47:01.924Z,99.99
2023-04-20T05:48:02.030Z,99.99
2023-04-20T05:49:01.910Z,99.99
2023-04-20T05:50:01.898Z,99.99
2023-04-20T05:51:01.887Z,99.99
2023-04-20T05:52:01.874Z,99.99
2023-04-20T05:53:01.856Z,99.99
2023-04-20T05:54:01.841Z,99.99
2023-04-20T05:55:01.831Z,99.99
2023-04-20T05:56:01.808Z,99.99
2023-04-20T05:57:01.821Z,99.99
2023-04-20T05:58:01.786Z,99.99
2023-04-20T05:59:01.785Z,99.99
2023-04-20T06:00:01.768Z,99.99
2023-04-20T06:01:01.760Z,99.99
2023-04-20T06:02:01.912Z,99.99
2023-04-20T06:03:02.101Z,99.99
2023-04-20T06:04:01.875Z,99.99
2023-04-20T06:05:01.781Z,99.99
2023-04-20T06:06:01.727Z,99.99
2023-04-20T06:07:01.702Z,99.99
2023-04-20T06:08:01.698Z,99.99
2023-04-20T06:09:01.673Z,99.99
2023-04-20T06:10:01.703Z,99.99
2023-04-20T06:11:01.661Z,99.99
2023-04-20T06:12:01.676Z,99.99
2023-04-20T06:13:01.645Z,99.99
2023-04-20T06:14:01.622Z,99.99
2023-04-20T06:15:01.649Z,99.99
2023-04-20T06:16:01.642Z,99.99
2023-04-20T06:17:01.594Z,99.99
2023-04-20T06:18:01.827Z,99.99
2023-04-20T06:19:01.592Z,99.99
2023-04-20T06:20:01.561Z,99.99
2023-04-20T06:21:01.564Z,99.99
2023-04-20T06:22:01.580Z,99.99
2023-04-20T06:23:01.541Z,99.99
2023-04-20T06:24:01.518Z,99.99
2023-04-20T06:25:01.507Z,99.99
2023-04-20T06:26:01.488Z,99.99
2023-04-20T06:27:01.475Z,99.99
2023-04-20T06:28:01.460Z,99.99
2023-04-20T06:29:01.469Z,99.99
2023-04-20T06:30:01.454Z,99.99
2023-04-20T06:31:01.577Z,99.99
2023-04-20T06:32:01.447Z,99.99
2023-04-20T06:33:01.564Z,99.99
2023-04-20T06:34:01.434Z,99.99
2023-04-20T06:35:01.386Z,99.99
2023-04-20T06:36:01.399Z,99.98
2023-04-20T06:37:01.364Z,99.66
2023-04-20T06:38:01.368Z,99.51
2023-04-20T06:39:01.333Z,99.62
2023-04-20T06:40:01.329Z,99.82
2023-04-20T06:41:01.335Z,99.99
2023-04-20T06:42:01.318Z,99.93
2023-04-20T06:43:01.314Z,99.82
2023-04-20T06:44:01.292Z,99.36
2023-04-20T06:45:01.280Z,99.36
2023-04-20T06:46:01.273Z,99.88
2023-04-20T06:47:01.323Z,99.99
2023-04-20T06:48:01.297Z,99.73
2023-04-20T06:49:01.232Z,99.32
2023-04-20T06:50:01.227Z,99.32
2023-04-20T06:51:01.213Z,99.84
2023-04-20T06:52:01.205Z,99.99
2023-04-20T06:53:01.194Z,99.99
2023-04-20T06:54:01.185Z,99.99
2023-04-20T06:55:01.200Z,99.99
2023-04-20T06:56:01.168Z,99.64
2023-04-20T06:57:01.133Z,99.64
2023-04-20T06:58:01.139Z,99.12
2023-04-20T06:59:01.114Z,99.12
2023-04-20T07:00:01.122Z,99.18
2023-04-20T07:01:01.087Z,99.07
2023-04-20T07:02:01.280Z,98.14
2023-04-20T07:03:01.222Z,98.03
2023-04-20T07:04:01.170Z,97.62
2023-04-20T07:05:01.185Z,95.54
2023-04-20T07:06:01.027Z,95.29
2023-04-20T07:07:01.073Z,93.74
2023-04-20T07:08:01.021Z,93.18
2023-04-20T07:09:01.026Z,92.76
2023-04-20T07:10:01.011Z,92.76
2023-04-20T07:11:00.981Z,91.68
2023-04-20T07:12:01.001Z,90.75
2023-04-20T07:13:01.020Z,90.02
2023-04-20T07:14:00.959Z,90.75
2023-04-20T07:15:00.977Z,90.70
2023-04-20T07:16:00.985Z,90.39
2023-04-20T07:17:00.944Z,89.04
2023-04-20T07:18:00.964Z,89.46
2023-04-20T07:19:00.892Z,90.08
2023-04-20T07:20:00.884Z,89.04
2023-04-20T07:21:00.898Z,90.19
2023-04-20T07:22:00.869Z,90.81
2023-04-20T07:23:00.868Z,90.97
2023-04-20T07:24:00.882Z,88.90
2023-04-20T07:25:00.861Z,88.39
2023-04-20T07:26:00.817Z,88.48
2023-04-20T07:27:00.899Z,88.79
2023-04-20T07:28:00.855Z,88.59
2023-04-20T07:29:00.803Z,89.11
2023-04-20T07:30:00.785Z,90.25
2023-04-20T07:31:00.772Z,89.00
2023-04-20T07:32:00.783Z,88.39
2023-04-20T07:33:00.818Z,88.07
2023-04-20T07:34:00.728Z,88.24
2023-04-20T07:35:00.773Z,88.65
2023-04-20T07:36:00.702Z,89.17
2023-04-20T07:37:00.723Z,88.86
2023-04-20T07:38:00.723Z,88.03
2023-04-20T07:39:00.682Z,88.45
2023-04-20T07:40:00.657Z,87.93
2023-04-20T07:41:00.661Z,88.24
2023-04-20T07:42:00.664Z,87.62
2023-04-20T07:43:00.658Z,88.34
2023-04-20T07:44:00.772Z,88.76
2023-04-20T07:45:00.625Z,87.51
2023-04-20T07:46:00.673Z,87.47
2023-04-20T07:47:00.960Z,88.09
2023-04-20T07:48:00.658Z,87.99
2023-04-20T07:49:00.583Z,87.88
2023-04-20T07:50:00.553Z,87.68
2023-04-20T07:51:00.555Z,87.99
2023-04-20T07:52:12.987Z,88.09
2023-04-20T07:53:00.535Z,88.30
2023-04-20T07:54:00.510Z,88.82
2023-04-20T07:55:00.521Z,88.61
2023-04-20T07:56:00.537Z,88.30
2023-04-20T07:57:00.492Z,87.68
2023-04-20T07:58:00.498Z,88.71
2023-04-20T07:59:00.604Z,88.61
2023-04-20T08:00:00.524Z,88.82
2023-04-20T08:01:00.461Z,89.23
2023-04-20T08:02:00.552Z,87.27
2023-04-20T08:03:00.568Z,88.30
2023-04-20T08:04:00.621Z,88.09
2023-04-20T08:05:00.685Z,86.96
2023-04-20T08:06:00.489Z,88.06
2023-04-20T08:07:00.368Z,88.46
2023-04-20T08:08:00.366Z,88.98
2023-04-20T08:09:00.369Z,87.64
2023-04-20T08:10:00.365Z,87.85
2023-04-20T08:11:00.396Z,87.43
2023-04-20T08:12:00.354Z,87.54
2023-04-20T08:13:00.338Z,88.26
2023-04-20T08:14:00.429Z,88.57
2023-04-20T08:15:00.337Z,88.16
2023-04-20T08:16:00.592Z,87.85
2023-04-20T08:17:00.287Z,89.19
2023-04-20T08:18:00.390Z,88.26
2023-04-20T08:19:00.246Z,86.60
2023-04-20T08:20:00.233Z,87.12
2023-04-20T08:21:00.232Z,86.71
2023-04-20T08:22:01.375Z,86.71
2023-04-20T08:23:00.203Z,86.71
2023-04-20T08:24:00.429Z,86.81
2023-04-20T08:25:00.188Z,85.99
2023-04-20T08:26:00.199Z,86.19
2023-04-20T08:27:00.163Z,86.60
2023-04-20T08:28:00.313Z,87.81
2023-04-20T08:29:00.162Z,87.08
2023-04-20T08:30:00.125Z,86.25
2023-04-20T08:31:00.192Z,86.77
2023-04-20T08:32:00.188Z,87.18
2023-04-20T08:33:00.168Z,87.29
2023-04-20T08:34:00.098Z,85.84
2023-04-20T08:35:00.088Z,86.77
2023-04-20T08:36:00.073Z,86.46
2023-04-20T08:37:00.070Z,86.57
2023-04-20T08:38:00.081Z,86.05
2023-04-20T08:39:00.036Z,86.15
2023-04-20T08:40:00.062Z,86.67
2023-04-20T08:41:00.016Z,86.36
2023-04-20T08:42:00.008Z,86.25
2023-04-20T08:42:59.986Z,86.67
2023-04-20T08:43:59.965Z,87.39
2023-04-20T08:44:59.964Z,86.05
2023-04-20T08:45:59.975Z,86.46
2023-04-20T08:47:00.077Z,86.88
2023-04-20T08:47:59.940Z,85.94
2023-04-20T08:48:59.941Z,85.74
2023-04-20T08:49:59.899Z,86.46
2023-04-20T08:50:59.887Z,86.57
2023-04-20T08:51:59.924Z,86.15
2023-04-20T08:52:59.868Z,86.25
2023-04-20T08:53:59.858Z,86.46
2023-04-20T08:54:59.844Z,85.94
2023-04-20T08:55:59.886Z,86.05
2023-04-20T08:56:59.819Z,86.88
2023-04-20T08:57:59.825Z,87.08
2023-04-20T08:58:59.810Z,86.98
2023-04-20T08:59:59.779Z,87.91
2023-04-20T09:00:59.773Z,86.77
2023-04-20T09:01:59.915Z,86.36
2023-04-20T09:02:59.892Z,87.76
2023-04-20T09:03:59.959Z,91.17
2023-04-20T09:04:59.769Z,90.72
2023-04-20T09:05:59.727Z,88.55
2023-04-20T09:06:59.724Z,87.41
2023-04-20T09:07:59.825Z,86.18
2023-04-20T09:08:59.700Z,86.49
2023-04-20T09:09:59.817Z,87.52
2023-04-20T09:10:59.704Z,86.28
2023-04-20T09:11:59.645Z,85.70
2023-04-20T09:12:59.691Z,86.01
2023-04-20T09:13:59.664Z,86.11
2023-04-20T09:14:59.622Z,86.63
2023-04-20T09:15:59.624Z,87.04
2023-04-20T09:16:59.615Z,87.04
2023-04-20T09:17:59.606Z,86.88
2023-04-20T09:18:59.606Z,86.67
2023-04-20T09:19:59.576Z,86.94
2023-04-20T09:20:59.581Z,87.91
2023-04-20T09:21:59.553Z,88.64
2023-04-20T09:22:59.553Z,87.49
2023-04-20T09:23:59.521Z,87.66
2023-04-20T09:24:59.521Z,87.60
2023-04-20T09:25:59.539Z,88.18
2023-04-20T09:26:59.506Z,88.28
2023-04-20T09:27:59.508Z,89.11
2023-04-20T09:28:59.609Z,88.18
2023-04-20T09:29:59.471Z,88.49
2023-04-20T09:30:59.453Z,87.97
2023-04-20T09:31:59.452Z,88.28
2023-04-20T09:32:59.452Z,88.07
2023-04-20T09:33:59.415Z,90.14
2023-04-20T09:34:59.427Z,87.56
2023-04-20T09:35:59.383Z,87.76
2023-04-20T09:36:59.383Z,88.28
2023-04-20T09:37:59.392Z,88.70
2023-04-20T09:38:59.356Z,88.28
2023-04-20T09:39:59.349Z,88.59
2023-04-20T09:40:59.352Z,88.07
2023-04-20T09:41:59.333Z,88.80
2023-04-20T09:42:59.337Z,88.39
2023-04-20T09:43:59.299Z,88.70
2023-04-20T09:44:59.300Z,89.01
2023-04-20T09:45:59.401Z,89.32
2023-04-20T09:46:59.299Z,89.94
2023-04-20T09:47:59.285Z,89.32
2023-04-20T09:48:59.282Z,88.39
2023-04-20T09:50:04.448Z,88.80
2023-04-20T09:50:59.237Z,89.11
2023-04-20T09:51:59.206Z,89.22
2023-04-20T09:52:59.202Z,89.62
2023-04-20T09:53:59.181Z,90.25
2023-04-20T09:54:59.204Z,89.01
2023-04-20T09:55:59.187Z,88.39
2023-04-20T09:56:59.148Z,88.49
2023-04-20T09:57:59.169Z,89.01
2023-04-20T09:58:59.142Z,88.45
2023-04-20T09:59:59.138Z,88.04
2023-04-20T10:00:59.129Z,88.86
2023-04-20T10:01:59.245Z,88.65
2023-04-20T10:02:59.209Z,89.38
2023-04-20T10:03:59.428Z,88.55
2023-04-20T10:04:59.068Z,89.13
2023-04-20T10:05:59.075Z,89.23
2023-04-20T10:06:59.073Z,88.20
2023-04-20T10:07:59.036Z,87.79
2023-04-20T10:08:59.039Z,88.10
2023-04-20T10:09:59.027Z,88.82
2023-04-20T10:10:59.002Z,88.26
2023-04-20T10:11:59.657Z,88.06
2023-04-20T10:12:58.972Z,87.54
2023-04-20T10:13:58.976Z,86.82
2023-04-20T10:14:58.968Z,86.51
2023-04-20T10:15:59.023Z,86.71
2023-04-20T10:16:59.041Z,86.61
2023-04-20T10:17:59.078Z,86.44
2023-04-20T10:18:58.947Z,86.76
2023-04-20T10:19:58.921Z,86.86
2023-04-20T10:20:58.899Z,87.58
2023-04-20T10:21:58.906Z,86.92
2023-04-20T10:22:58.869Z,86.65
2023-04-20T10:23:58.901Z,87.34
2023-04-20T10:24:58.863Z,86.71
2023-04-20T10:25:58.844Z,86.41
2023-04-20T10:26:58.830Z,86.71
2023-04-20T10:27:58.833Z,86.16
2023-04-20T10:28:58.811Z,87.08
2023-04-20T10:29:58.981Z,87.08
2023-04-20T10:30:58.870Z,85.95
2023-04-20T10:31:58.773Z,86.88
2023-04-20T10:32:58.850Z,86.05
2023-04-20T10:33:58.778Z,85.95
2023-04-20T10:34:58.789Z,86.47
2023-04-20T10:35:58.728Z,86.98
2023-04-20T10:36:58.704Z,86.36
2023-04-20T10:37:58.736Z,86.68
2023-04-20T10:38:58.704Z,86.05
2023-04-20T10:39:58.708Z,85.54
2023-04-20T10:40:58.677Z,86.47
2023-04-20T10:41:58.677Z,85.54
2023-04-20T10:42:58.642Z,86.36
2023-04-20T10:43:58.676Z,85.95
2023-04-20T10:44:58.646Z,86.05
2023-04-20T10:45:58.676Z,85.85
2023-04-20T10:46:58.618Z,85.85
2023-04-20T10:47:58.657Z,85.23
2023-04-20T10:48:58.632Z,85.95
2023-04-20T10:49:58.575Z,85.13
2023-04-20T10:50:58.557Z,85.13
2023-04-20T10:51:58.558Z,85.44
2023-04-20T10:52:58.684Z,86.26
2023-04-20T10:53:58.532Z,85.95
2023-04-20T10:54:58.566Z,85.23
2023-04-20T10:55:58.539Z,85.64
2023-04-20T10:56:58.492Z,86.47
2023-04-20T10:57:58.497Z,85.95
2023-04-20T10:58:59.461Z,86.47
2023-04-20T10:59:58.492Z,85.85
2023-04-20T11:00:58.501Z,86.47
2023-04-20T11:01:58.577Z,86.47
2023-04-20T11:02:58.587Z,85.85
2023-04-20T11:03:58.452Z,86.47
2023-04-20T11:04:58.459Z,86.26
2023-04-20T11:05:58.422Z,86.26
2023-04-20T11:06:58.387Z,86.47
2023-04-20T11:07:58.398Z,87.08
2023-04-20T11:08:58.359Z,86.36
2023-04-20T11:09:58.376Z,86.26
2023-04-20T11:10:58.353Z,86.16
2023-04-20T11:11:58.365Z,86.57
2023-04-20T11:12:58.325Z,86.36
2023-04-20T11:13:58.318Z,86.16
2023-04-20T11:14:58.308Z,86.47
2023-04-20T11:15:58.352Z,86.78
2023-04-20T11:16:58.376Z,87.08
2023-04-20T11:17:58.326Z,86.47
2023-04-20T11:18:58.246Z,86.57
2023-04-20T11:19:58.252Z,85.95
2023-04-20T11:20:58.218Z,86.68
2023-04-20T11:21:58.225Z,86.78
2023-04-20T11:22:58.204Z,87.50
2023-04-20T11:23:58.205Z,87.60
2023-04-20T11:24:58.344Z,86.57
2023-04-20T11:25:58.202Z,86.98
2023-04-20T11:26:58.226Z,87.19
2023-04-20T11:27:58.186Z,86.78
2023-04-20T11:28:58.143Z,86.43
2023-04-20T11:29:58.143Z,86.53
2023-04-20T11:30:58.141Z,87.05
2023-04-20T11:31:58.311Z,86.84
2023-04-20T11:32:58.251Z,86.36
2023-04-20T11:33:58.090Z,86.74
2023-04-20T11:35:05.957Z,86.16
2023-04-20T11:35:58.092Z,86.57
2023-04-20T11:36:58.066Z,86.47
2023-04-20T11:37:58.046Z,86.57
2023-04-20T11:38:58.056Z,87.19
2023-04-20T11:39:58.011Z,87.29
2023-04-20T11:40:58.017Z,87.98
2023-04-20T11:41:57.998Z,87.15
2023-04-20T11:42:57.989Z,86.88
2023-04-20T11:43:57.963Z,87.56
2023-04-20T11:44:58.185Z,87.98
2023-04-20T11:45:58.015Z,88.80
2023-04-20T11:46:57.935Z,90.25
2023-04-20T11:47:57.996Z,89.73
2023-04-20T11:48:57.923Z,89.89
2023-04-20T11:49:57.928Z,91.13
2023-04-20T11:50:57.905Z,89.28
2023-04-20T11:51:57.897Z,88.65
2023-04-20T11:52:57.877Z,89.17
2023-04-20T11:53:57.878Z,88.76
2023-04-20T11:54:57.857Z,88.35
2023-04-20T11:55:57.840Z,87.21
2023-04-20T11:56:57.843Z,88.29
2023-04-20T11:57:57.824Z,89.58
2023-04-20T11:58:57.816Z,88.86
2023-04-20T11:59:57.820Z,89.48
2023-04-20T12:00:57.789Z,87.52
2023-04-20T12:01:57.828Z,88.45
2023-04-20T12:02:57.872Z,87.52
2023-04-20T12:03:58.007Z,88.65
2023-04-20T12:04:57.897Z,89.17
2023-04-20T12:05:57.763Z,88.65
2023-04-20T12:06:57.706Z,87.63
2023-04-20T12:07:57.719Z,88.72
2023-04-20T12:08:57.745Z,89.65
2023-04-20T12:09:57.686Z,88.92
2023-04-20T12:10:58.654Z,88.72
2023-04-20T12:11:57.662Z,89.03
2023-04-20T12:12:57.658Z,89.50
2023-04-20T12:13:57.654Z,88.78
2023-04-20T12:14:57.630Z,87.59
2023-04-20T12:15:57.649Z,87.17
2023-04-20T12:16:58.664Z,88.04
2023-04-20T12:17:57.629Z,88.65
2023-04-20T12:18:57.585Z,88.86
2023-04-20T12:19:57.617Z,87.73
2023-04-20T12:20:57.572Z,88.90
2023-04-20T12:21:57.574Z,90.00
2023-04-20T12:22:58.948Z,89.79
2023-04-20T12:23:57.540Z,89.07
2023-04-20T12:24:57.528Z,89.89
2023-04-20T12:25:57.517Z,88.56
2023-04-20T12:26:57.524Z,87.52
2023-04-20T12:27:57.524Z,88.14
2023-04-20T12:28:57.497Z,87.93
2023-04-20T12:29:57.452Z,88.24
2023-04-20T12:30:57.489Z,88.72
2023-04-20T12:31:57.542Z,88.31
2023-04-20T12:32:57.482Z,88.31
2023-04-20T12:33:57.412Z,87.90
2023-04-20T12:34:57.428Z,87.27
2023-04-20T12:35:57.420Z,87.48
2023-04-20T12:36:57.406Z,87.48
2023-04-20T12:37:57.409Z,87.07
2023-04-20T12:38:57.392Z,88.31
2023-04-20T12:39:57.372Z,87.38
2023-04-20T12:40:57.333Z,87.48
2023-04-20T12:41:57.337Z,87.69
2023-04-20T12:42:57.329Z,86.97
2023-04-20T12:43:57.314Z,86.97
2023-04-20T12:44:57.316Z,86.76
2023-04-20T12:45:57.318Z,86.15
2023-04-20T12:46:57.350Z,86.76
2023-04-20T12:47:58.484Z,86.87
2023-04-20T12:48:57.264Z,87.01
2023-04-20T12:49:57.232Z,87.27
2023-04-20T12:50:57.269Z,87.69
2023-04-20T12:51:57.225Z,87.90
2023-04-20T12:52:57.223Z,88.62
2023-04-20T12:53:57.221Z,87.48
2023-04-20T12:54:57.192Z,87.42
2023-04-20T12:56:01.045Z,87.52
2023-04-20T12:56:57.155Z,87.63
2023-04-20T12:57:57.163Z,88.04
2023-04-20T12:58:57.152Z,88.56
2023-04-20T12:59:57.128Z,88.45
2023-04-20T13:00:57.169Z,88.24
2023-04-20T13:01:57.142Z,88.24
2023-04-20T13:02:57.311Z,88.14
2023-04-20T13:03:57.339Z,88.45
2023-04-20T13:04:57.066Z,88.35
2023-04-20T13:05:57.071Z,88.45
2023-04-20T13:06:57.037Z,88.45
2023-04-20T13:07:57.060Z,88.86
2023-04-20T13:08:57.064Z,88.76
2023-04-20T13:09:57.016Z,88.24
2023-04-20T13:10:57.019Z,88.35
2023-04-20T13:11:57.017Z,87.90
2023-04-20T13:12:57.001Z,87.99
2023-04-20T13:13:56.997Z,87.69
2023-04-20T13:14:56.952Z,87.79
2023-04-20T13:15:57.004Z,87.90
2023-04-20T13:16:57.018Z,88.82
2023-04-20T13:17:56.980Z,87.59
2023-04-20T13:18:56.994Z,87.90
2023-04-20T13:19:56.903Z,87.99
2023-04-20T13:20:56.923Z,87.59
2023-04-20T13:21:56.901Z,87.48
2023-04-20T13:22:58.152Z,87.79
2023-04-20T13:23:57.118Z,88.20
2023-04-20T13:24:56.863Z,87.90
2023-04-20T13:25:56.866Z,87.99
2023-04-20T13:26:56.880Z,88.41
2023-04-20T13:27:56.833Z,87.90
2023-04-20T13:28:56.799Z,87.93
2023-04-20T13:29:56.848Z,87.63
2023-04-20T13:30:56.773Z,87.83
2023-04-20T13:31:56.809Z,88.56
2023-04-20T13:32:56.825Z,88.96
2023-04-20T13:33:56.763Z,88.65
2023-04-20T13:34:56.753Z,88.86
2023-04-20T13:35:56.727Z,88.45
2023-04-20T13:36:56.745Z,88.35
2023-04-20T13:37:56.737Z,88.92
2023-04-20T13:38:56.703Z,88.20
2023-04-20T13:39:56.700Z,88.62
2023-04-20T13:40:56.700Z,88.62
2023-04-20T13:41:56.660Z,88.62
2023-04-20T13:42:56.669Z,88.92
2023-04-20T13:43:56.648Z,88.51
2023-04-20T13:44:56.645Z,89.34
2023-04-20T13:45:56.651Z,89.03
2023-04-20T13:46:56.628Z,89.13
2023-04-20T13:47:56.626Z,89.54
2023-04-20T13:48:56.616Z,89.79
2023-04-20T13:49:56.606Z,89.79
2023-04-20T13:50:56.567Z,90.00
2023-04-20T13:51:56.577Z,90.41
2023-04-20T13:52:56.564Z,90.10
2023-04-20T13:53:56.547Z,89.52
2023-04-20T13:54:56.528Z,89.83
2023-04-20T13:55:56.525Z,90.35
2023-04-20T13:56:56.501Z,90.45
2023-04-20T13:57:56.497Z,90.97
2023-04-20T13:58:56.486Z,90.76
2023-04-20T13:59:56.512Z,91.07
2023-04-20T14:00:56.522Z,91.28
2023-04-20T14:01:56.458Z,91.38
2023-04-20T14:02:56.491Z,91.79
2023-04-20T14:03:56.514Z,91.17
2023-04-20T14:04:56.484Z,91.38
2023-04-20T14:05:56.414Z,91.38
2023-04-20T14:06:56.405Z,91.69
2023-04-20T14:07:56.404Z,91.38
2023-04-20T14:08:56.384Z,91.69
2023-04-20T14:09:56.623Z,91.38
2023-04-20T14:10:56.364Z,91.48
2023-04-20T14:11:57.160Z,91.79
2023-04-20T14:12:56.324Z,91.48
2023-04-20T14:13:56.318Z,92.10
2023-04-20T14:14:56.309Z,92.51
2023-04-20T14:15:56.333Z,91.79
2023-04-20T14:16:56.294Z,91.48
2023-04-20T14:17:56.315Z,90.92
2023-04-20T14:18:56.259Z,91.34
2023-04-20T14:19:56.243Z,91.64
2023-04-20T14:20:56.238Z,91.34
2023-04-20T14:21:56.229Z,91.13
2023-04-20T14:22:56.215Z,91.34
2023-04-20T14:23:56.223Z,91.34
2023-04-20T14:24:56.181Z,90.35
2023-04-20T14:25:56.187Z,90.04
2023-04-20T14:26:56.185Z,90.35
2023-04-20T14:27:56.175Z,90.97
2023-04-20T14:28:56.169Z,90.76
2023-04-20T14:29:56.171Z,90.66
2023-04-20T14:30:56.170Z,90.45
2023-04-20T14:31:56.201Z,90.97
2023-04-20T14:32:56.215Z,91.07
2023-04-20T14:33:56.110Z,91.28
2023-04-20T14:34:56.146Z,91.07
2023-04-20T14:35:56.227Z,91.17
2023-04-20T14:36:56.093Z,91.11
2023-04-20T14:37:56.032Z,91.22
2023-04-20T14:38:56.047Z,91.22
2023-04-20T14:39:56.069Z,91.32
2023-04-20T14:40:56.034Z,91.17
2023-04-20T14:41:55.992Z,91.07
2023-04-20T14:42:56.005Z,91.38
2023-04-20T14:43:55.995Z,91.48
2023-04-20T14:44:55.980Z,91.22
2023-04-20T14:45:55.972Z,91.58
2023-04-20T14:46:56.043Z,90.91
2023-04-20T14:47:55.992Z,91.01
2023-04-20T14:48:55.939Z,91.52
2023-04-20T14:49:55.918Z,91.58
2023-04-20T14:50:55.940Z,91.42
2023-04-20T14:51:55.902Z,91.52
2023-04-20T14:52:55.885Z,91.01
2023-04-20T14:53:55.875Z,91.83
2023-04-20T14:54:55.864Z,92.04
2023-04-20T14:55:55.839Z,91.38
2023-04-20T14:56:55.864Z,91.69
2023-04-20T14:57:55.820Z,91.38
2023-04-20T14:58:55.845Z,91.69
2023-04-20T14:59:55.822Z,91.69
2023-04-20T15:00:55.785Z,91.48
2023-04-20T15:02:02.738Z,91.48
2023-04-20T15:02:55.951Z,91.22
2023-04-20T15:03:56.071Z,91.69
2023-04-20T15:04:55.995Z,92.00
2023-04-20T15:05:55.926Z,91.58
2023-04-20T15:06:55.737Z,91.52
2023-04-20T15:07:55.768Z,91.73
2023-04-20T15:08:55.717Z,92.00
2023-04-20T15:09:55.703Z,92.31
2023-04-20T15:10:55.734Z,92.61
2023-04-20T15:11:55.677Z,91.89
2023-04-20T15:12:55.663Z,92.10
2023-04-20T15:13:55.647Z,92.61
2023-04-20T15:14:55.676Z,91.79
2023-04-20T15:15:55.661Z,91.89
2023-04-20T15:16:55.663Z,91.94
2023-04-20T15:17:55.677Z,92.66
2023-04-20T15:18:55.600Z,92.66
2023-04-20T15:19:55.576Z,92.97
2023-04-20T15:20:55.579Z,92.66
2023-04-20T15:21:55.563Z,92.97
2023-04-20T15:22:55.576Z,93.59
2023-04-20T15:23:55.532Z,93.69
2023-04-20T15:24:55.561Z,94.00
2023-04-20T15:25:55.505Z,94.10
2023-04-20T15:26:55.520Z,94.00
2023-04-20T15:27:55.501Z,94.00
2023-04-20T15:28:55.503Z,93.79
2023-04-20T15:29:55.467Z,94.21
2023-04-20T15:30:55.544Z,94.42
2023-04-20T15:31:55.528Z,94.21
2023-04-20T15:32:55.569Z,94.82
2023-04-20T15:33:55.428Z,94.72
2023-04-20T15:34:55.476Z,94.21
2023-04-20T15:35:55.412Z,94.00
2023-04-20T15:36:55.409Z,94.31
2023-04-20T15:37:55.404Z,94.72
2023-04-20T15:38:57.572Z,94.82
2023-04-20T15:39:55.378Z,93.90
2023-04-20T15:40:55.380Z,94.10
2023-04-20T15:41:55.328Z,94.21
2023-04-20T15:42:55.418Z,94.00
2023-04-20T15:43:55.325Z,94.62
2023-04-20T15:44:55.323Z,94.72
2023-04-20T15:45:55.366Z,94.82
2023-04-20T15:46:55.347Z,95.40
2023-04-20T15:47:55.309Z,94.78
2023-04-20T15:48:55.252Z,94.57
2023-04-20T15:49:55.266Z,94.21
2023-04-20T15:50:55.245Z,93.79
2023-04-20T15:51:55.222Z,94.47
2023-04-20T15:52:55.231Z,93.79
2023-04-20T15:53:55.265Z,93.59
2023-04-20T15:54:55.198Z,94.31
2023-04-20T15:55:55.207Z,93.79
2023-04-20T15:56:55.234Z,93.90
2023-04-20T15:57:55.165Z,94.21
2023-04-20T15:58:55.153Z,94.31
2023-04-20T15:59:55.140Z,93.90
2023-04-20T16:00:55.184Z,94.00
2023-04-20T16:01:55.266Z,94.21
2023-04-20T16:02:55.280Z,94.42
2023-04-20T16:03:55.341Z,94.42
2023-04-20T16:04:55.263Z,94.31
2023-04-20T16:05:55.109Z,94.31
2023-04-20T16:06:55.086Z,94.10
2023-04-20T16:07:55.084Z,94.82
2023-04-20T16:08:55.051Z,94.42
2023-04-20T16:09:55.036Z,94.82
2023-04-20T16:10:55.052Z,94.52
2023-04-20T16:11:55.017Z,94.42
2023-04-20T16:12:55.002Z,94.62
2023-04-20T16:13:54.970Z,94.93
2023-04-20T16:14:54.972Z,94.52
2023-04-20T16:15:55.001Z,94.42
2023-04-20T16:16:54.959Z,94.93
2023-04-20T16:17:55.020Z,94.93
2023-04-20T16:18:54.929Z,95.03
2023-04-20T16:19:54.911Z,95.09
2023-04-20T16:20:54.901Z,95.24
2023-04-20T16:21:54.908Z,94.78
2023-04-20T16:22:54.904Z,94.52
2023-04-20T16:23:54.870Z,94.52
2023-04-20T16:24:54.873Z,94.72
2023-04-20T16:25:54.852Z,94.52
2023-04-20T16:26:54.851Z,94.31
2023-04-20T16:27:54.856Z,94.42
2023-04-20T16:28:54.830Z,95.03
2023-04-20T16:29:54.832Z,95.71
2023-04-20T16:30:54.918Z,95.24
2023-04-20T16:31:54.879Z,95.24
2023-04-20T16:32:54.883Z,95.30
2023-04-20T16:33:54.764Z,95.71
2023-04-20T16:34:54.770Z,95.71
2023-04-20T16:35:54.756Z,94.78
2023-04-20T16:36:54.742Z,94.47
2023-04-20T16:37:54.734Z,94.99
2023-04-20T16:38:54.776Z,94.99
2023-04-20T16:39:54.714Z,94.37
2023-04-20T16:40:54.707Z,93.96
2023-04-20T16:41:54.727Z,93.96
2023-04-20T16:42:54.703Z,94.17
2023-04-20T16:43:54.656Z,94.57
2023-04-20T16:44:54.653Z,94.37
2023-04-20T16:45:54.672Z,94.47
2023-04-20T16:46:54.664Z,94.57
2023-04-20T16:47:54.709Z,94.68
2023-04-20T16:48:54.641Z,95.09
2023-04-20T16:49:54.594Z,94.37
2023-04-20T16:50:54.590Z,93.96
2023-04-20T16:51:54.606Z,93.96
2023-04-20T16:52:54.594Z,93.65
2023-04-20T16:53:54.550Z,93.54
2023-04-20T16:54:54.560Z,93.85
2023-04-20T16:55:54.526Z,93.75
2023-04-20T16:56:54.504Z,93.96
2023-04-20T16:57:54.532Z,94.17
2023-04-20T16:58:54.540Z,94.06
2023-04-20T16:59:54.481Z,93.65
2023-04-20T17:00:54.526Z,93.85
2023-04-20T17:01:54.493Z,94.27
2023-04-20T17:02:54.624Z,93.65
2023-04-20T17:03:54.636Z,93.75
2023-04-20T17:04:54.455Z,93.65
2023-04-20T17:05:54.422Z,93.09
2023-04-20T17:06:54.491Z,92.82
2023-04-20T17:07:54.406Z,93.30
2023-04-20T17:08:54.461Z,93.13
2023-04-20T17:09:54.364Z,93.71
2023-04-20T17:10:54.431Z,93.24
2023-04-20T17:11:54.338Z,93.24
2023-04-20T17:12:54.327Z,93.65
2023-04-20T17:13:54.373Z,94.02
2023-04-20T17:14:54.328Z,93.91
2023-04-20T17:15:54.306Z,93.50
2023-04-20T17:16:54.470Z,93.54
2023-04-20T17:17:54.359Z,93.60
2023-04-20T17:18:54.264Z,93.24
2023-04-20T17:19:54.244Z,93.34
2023-04-20T17:20:54.266Z,93.44
2023-04-20T17:21:54.231Z,93.75
2023-04-20T17:22:54.228Z,93.75
2023-04-20T17:23:54.240Z,94.17
2023-04-20T17:24:54.233Z,94.02
2023-04-20T17:25:54.199Z,94.02
2023-04-20T17:26:54.184Z,93.91
2023-04-20T17:27:54.190Z,93.81
2023-04-20T17:28:54.187Z,93.60
2023-04-20T17:29:54.174Z,93.81
2023-04-20T17:30:54.174Z,93.81
2023-04-20T17:31:54.186Z,93.60
2023-04-20T17:32:54.137Z,93.50
2023-04-20T17:33:54.103Z,94.02
2023-04-20T17:34:54.159Z,93.91
2023-04-20T17:35:54.086Z,93.50
2023-04-20T17:36:54.074Z,93.71
2023-04-20T17:37:54.091Z,93.60
2023-04-20T17:38:54.070Z,94.23
2023-04-20T17:39:54.053Z,94.32
2023-04-20T17:40:54.044Z,94.02
2023-04-20T17:41:54.038Z,93.81
2023-04-20T17:42:54.036Z,93.71
2023-04-20T17:43:54.022Z,93.60
2023-04-20T17:44:54.015Z,93.81
2023-04-20T17:45:54.011Z,93.91
2023-04-20T17:46:53.971Z,93.81
2023-04-20T17:47:54.060Z,93.71
2023-04-20T17:48:53.950Z,94.02
2023-04-20T17:49:53.964Z,93.91
2023-04-20T17:50:53.910Z,94.12
2023-04-20T17:51:53.904Z,93.71
2023-04-20T17:52:53.912Z,94.02
2023-04-20T17:53:53.879Z,95.42
2023-04-20T17:54:53.886Z,94.70
2023-04-20T17:55:53.856Z,93.98
2023-04-20T17:56:53.854Z,93.25
2023-04-20T17:57:53.847Z,92.74
2023-04-20T17:58:53.832Z,92.59
2023-04-20T17:59:53.869Z,92.74
2023-04-20T18:00:53.804Z,92.53
2023-04-20T18:01:53.944Z,91.81
2023-04-20T18:02:54.002Z,91.91
2023-04-20T18:03:53.907Z,92.33
2023-04-20T18:04:53.968Z,92.53
2023-04-20T18:05:54.392Z,92.84
2023-04-20T18:06:53.754Z,92.94
2023-04-20T18:07:53.752Z,92.94
2023-04-20T18:08:53.731Z,92.84
2023-04-20T18:09:53.713Z,92.84
2023-04-20T18:10:53.730Z,93.15
2023-04-20T18:11:53.692Z,93.35
2023-04-20T18:12:53.693Z,93.56
2023-04-20T18:13:53.639Z,93.66
2023-04-20T18:14:53.675Z,93.98
2023-04-20T18:15:53.703Z,94.08